createdAt,value
2018-09-16T00:00:29.217Z,1025.69
2018-09-16T00:01:29.172Z,1025.70
2018-09-16T00:02:30.327Z,1025.70
2018-09-16T00:03:49.800Z,1025.68
2018-09-16T00:04:50.021Z,1025.68
2018-09-16T00:05:50.022Z,1025.68
2018-09-16T00:06:49.975Z,1025.68
2018-09-16T00:07:50.039Z,1025.70
2018-09-16T00:08:50.386Z,1025.66
2018-09-16T00:09:50.664Z,1025.65
2018-09-16T00:11:11.638Z,1025.64
2018-09-16T00:12:12.011Z,1025.65
2018-09-16T00:13:12.261Z,1025.62
2018-09-16T00:14:12.489Z,1025.63
2018-09-16T00:15:11.603Z,1025.63
2018-09-16T00:16:32.659Z,1025.59
2018-09-16T00:17:32.912Z,1025.58
2018-09-16T00:18:32.913Z,1025.59
2018-09-16T00:19:33.057Z,1025.59
2018-09-16T00:20:33.308Z,1025.59
2018-09-16T00:21:33.525Z,1025.61
2018-09-16T00:22:33.204Z,1025.58
2018-09-16T00:23:33.334Z,1025.59
2018-09-16T00:24:33.375Z,1025.56
2018-09-16T00:25:33.665Z,1025.57
2018-09-16T00:26:33.065Z,1025.55
2018-09-16T00:27:33.192Z,1025.61
2018-09-16T00:28:33.491Z,1025.57
2018-09-16T00:29:54.517Z,1025.59
2018-09-16T00:30:54.525Z,1025.57
2018-09-16T00:32:17.906Z,1025.56
2018-09-16T00:33:18.412Z,1025.56
2018-09-16T00:34:18.742Z,1025.60
2018-09-16T00:35:17.807Z,1025.59
2018-09-16T00:36:18.039Z,1025.54
2018-09-16T00:37:18.120Z,1025.55
2018-09-16T00:38:18.275Z,1025.52
2018-09-16T00:39:18.435Z,1025.50
2018-09-16T00:40:39.419Z,1025.52
2018-09-16T00:41:39.616Z,1025.51
2018-09-16T00:42:39.732Z,1025.46
2018-09-16T00:43:39.731Z,1025.47
2018-09-16T00:44:39.800Z,1025.45
2018-09-16T00:45:45.477Z,1025.47
2018-09-16T00:46:40.433Z,1025.43
2018-09-16T00:48:00.753Z,1025.41
2018-09-16T00:49:00.868Z,1025.41
2018-09-16T00:50:01.195Z,1025.42
2018-09-16T00:51:01.220Z,1025.38
2018-09-16T00:52:01.376Z,1025.38
2018-09-16T00:53:01.695Z,1025.36
2018-09-16T00:54:00.938Z,1025.38
2018-09-16T00:55:00.910Z,1025.32
2018-09-16T00:56:01.145Z,1025.35
2018-09-16T00:57:01.377Z,1025.36
2018-09-16T00:58:00.726Z,1025.36
2018-09-16T00:59:00.742Z,1025.40
2018-09-16T01:00:00.926Z,1025.35
2018-09-16T01:01:01.087Z,1025.38
2018-09-16T01:02:01.571Z,1025.35
2018-09-16T01:03:00.805Z,1025.33
2018-09-16T01:04:00.845Z,1025.31
2018-09-16T01:05:01.055Z,1025.35
2018-09-16T01:06:01.080Z,1025.35
2018-09-16T01:07:01.145Z,1025.35
2018-09-16T01:08:01.520Z,1025.34
2018-09-16T01:09:00.639Z,1025.32
2018-09-16T01:10:01.661Z,1025.33
2018-09-16T01:11:00.809Z,1025.33
2018-09-16T01:12:00.845Z,1025.31
2018-09-16T01:13:00.985Z,1025.32
2018-09-16T01:14:01.055Z,1025.31
2018-09-16T01:15:01.159Z,1025.30
2018-09-16T01:16:01.317Z,1025.28
2018-09-16T01:17:01.426Z,1025.29
2018-09-16T01:18:21.430Z,1025.25
2018-09-16T01:19:21.734Z,1025.26
2018-09-16T01:20:21.921Z,1025.26
2018-09-16T01:21:22.364Z,1025.18
2018-09-16T01:22:21.477Z,1025.19
2018-09-16T01:23:21.827Z,1025.20
2018-09-16T01:24:43.062Z,1025.22
2018-09-16T01:25:43.399Z,1025.27
2018-09-16T01:26:43.509Z,1025.23
2018-09-16T01:27:43.688Z,1025.27
2018-09-16T01:29:04.900Z,1025.24
2018-09-16T01:30:26.177Z,1025.22
2018-09-16T01:31:26.370Z,1025.19
2018-09-16T01:32:26.455Z,1025.14
2018-09-16T01:33:26.515Z,1025.17
2018-09-16T01:34:26.722Z,1025.11
2018-09-16T01:35:26.977Z,1025.14
2018-09-16T01:36:25.981Z,1025.15
2018-09-16T01:37:26.372Z,1025.13
2018-09-16T01:38:26.534Z,1025.13
2018-09-16T01:39:26.526Z,1025.13
2018-09-16T01:40:26.819Z,1025.09
2018-09-16T01:41:27.818Z,1025.06
2018-09-16T01:42:26.588Z,1025.07
2018-09-16T01:43:26.853Z,1025.08
2018-09-16T01:44:26.179Z,1025.09
2018-09-16T01:45:26.496Z,1025.08
2018-09-16T01:46:26.798Z,1025.08
2018-09-16T01:47:26.775Z,1025.02
2018-09-16T01:48:26.679Z,1025.01
2018-09-16T01:49:26.848Z,1025.02
2018-09-16T01:50:47.813Z,1025.02
2018-09-16T01:51:47.956Z,1025.00
2018-09-16T01:52:49.044Z,1024.96
2018-09-16T01:53:48.419Z,1024.95
2018-09-16T01:54:48.515Z,1024.90
2018-09-16T01:55:48.770Z,1024.89
2018-09-16T01:57:09.065Z,1024.90
2018-09-16T01:58:09.320Z,1024.88
2018-09-16T01:59:51.415Z,1024.88
2018-09-16T02:00:51.505Z,1024.91
2018-09-16T02:01:51.709Z,1024.88
2018-09-16T02:02:52.005Z,1024.88
2018-09-16T02:03:52.210Z,1024.88
2018-09-16T02:04:51.514Z,1024.93
2018-09-16T02:05:51.739Z,1024.95
2018-09-16T02:06:52.664Z,1024.89
2018-09-16T02:08:12.960Z,1024.91
2018-09-16T02:09:12.859Z,1024.90
2018-09-16T02:10:33.960Z,1024.91
2018-09-16T02:11:34.296Z,1024.92
2018-09-16T02:12:34.446Z,1024.92
2018-09-16T02:13:34.893Z,1024.89
2018-09-16T02:14:34.130Z,1024.89
2018-09-16T02:15:34.108Z,1024.85
2018-09-16T02:16:55.441Z,1024.83
2018-09-16T02:18:16.756Z,1024.77
2018-09-16T02:19:16.935Z,1024.70
2018-09-16T02:20:38.264Z,1024.75
2018-09-16T02:21:38.448Z,1024.74
2018-09-16T02:22:38.684Z,1024.70
2018-09-16T02:23:39.104Z,1024.70
2018-09-16T02:24:38.264Z,1024.68
2018-09-16T02:25:38.443Z,1024.64
2018-09-16T02:26:38.861Z,1024.63
2018-09-16T02:27:39.084Z,1024.60
2018-09-16T02:28:38.326Z,1024.56
2018-09-16T02:29:59.374Z,1024.52
2018-09-16T02:30:59.592Z,1024.49
2018-09-16T02:32:00.039Z,1024.48
2018-09-16T02:33:00.020Z,1024.43
2018-09-16T02:33:59.968Z,1024.48
2018-09-16T02:35:00.767Z,1024.47
2018-09-16T02:35:59.992Z,1024.49
2018-09-16T02:37:00.146Z,1024.45
2018-09-16T02:37:59.308Z,1024.45
2018-09-16T02:38:59.479Z,1024.42
2018-09-16T02:40:20.385Z,1024.44
2018-09-16T02:41:21.442Z,1024.42
2018-09-16T02:42:20.514Z,1024.40
2018-09-16T02:44:02.652Z,1024.38
2018-09-16T02:45:02.616Z,1024.39
2018-09-16T02:46:02.847Z,1024.35
2018-09-16T02:47:03.355Z,1024.33
2018-09-16T02:48:03.499Z,1024.31
2018-09-16T02:49:02.670Z,1024.33
2018-09-16T02:50:02.862Z,1024.34
2018-09-16T02:51:03.063Z,1024.32
2018-09-16T02:52:24.209Z,1024.33
2018-09-16T02:53:24.408Z,1024.34
2018-09-16T02:54:24.733Z,1024.28
2018-09-16T02:55:24.966Z,1024.24
2018-09-16T02:56:25.393Z,1024.22
2018-09-16T02:57:24.724Z,1024.26
2018-09-16T02:58:45.977Z,1024.26
2018-09-16T02:59:46.175Z,1024.26
2018-09-16T03:01:07.469Z,1024.23
2018-09-16T03:02:07.832Z,1024.21
2018-09-16T03:03:29.145Z,1024.18
2018-09-16T03:04:29.370Z,1024.13
2018-09-16T03:05:29.539Z,1024.16
2018-09-16T03:06:29.950Z,1024.20
2018-09-16T03:07:29.079Z,1024.21
2018-09-16T03:08:29.159Z,1024.23
2018-09-16T03:09:50.438Z,1024.27
2018-09-16T03:10:50.706Z,1024.24
2018-09-16T03:11:50.865Z,1024.30
2018-09-16T03:12:51.638Z,1024.32
2018-09-16T03:13:51.140Z,1024.28
2018-09-16T03:14:51.193Z,1024.28
2018-09-16T03:15:51.026Z,1024.27
2018-09-16T03:16:51.243Z,1024.31
2018-09-16T03:17:51.386Z,1024.29
2018-09-16T03:18:50.372Z,1024.31
2018-09-16T03:19:50.713Z,1024.28
2018-09-16T03:21:11.846Z,1024.23
2018-09-16T03:22:12.013Z,1024.21
2018-09-16T03:23:33.041Z,1024.19
2018-09-16T03:24:33.274Z,1024.22
2018-09-16T03:25:33.305Z,1024.20
2018-09-16T03:27:16.814Z,1024.21
2018-09-16T03:28:06.827Z,1024.23
2018-09-16T03:29:06.899Z,1024.20
2018-09-16T03:30:06.946Z,1024.17
2018-09-16T03:31:07.210Z,1024.20
2018-09-16T03:32:07.440Z,1024.22
2018-09-16T03:33:06.565Z,1024.27
2018-09-16T03:34:06.646Z,1024.23
2018-09-16T03:35:06.985Z,1024.23
2018-09-16T03:36:07.197Z,1024.23
2018-09-16T03:37:07.277Z,1024.21
2018-09-16T03:38:06.387Z,1024.18
2018-09-16T03:39:06.588Z,1024.19
2018-09-16T03:40:27.819Z,1024.15
2018-09-16T03:41:28.024Z,1024.16
2018-09-16T03:42:28.343Z,1024.14
2018-09-16T03:43:28.545Z,1024.12
2018-09-16T03:44:28.686Z,1024.17
2018-09-16T03:45:28.187Z,1024.18
2018-09-16T03:46:28.449Z,1024.15
2018-09-16T03:47:28.670Z,1024.12
2018-09-16T03:48:48.736Z,1024.13
2018-09-16T03:49:49.015Z,1024.16
2018-09-16T03:50:49.358Z,1024.15
2018-09-16T03:52:30.489Z,1024.14
2018-09-16T03:53:30.661Z,1024.17
2018-09-16T03:54:30.916Z,1024.12
2018-09-16T03:55:31.165Z,1024.11
2018-09-16T03:56:30.629Z,1024.14
2018-09-16T03:57:52.147Z,1024.13
2018-09-16T03:59:13.532Z,1024.10
2018-09-16T04:00:13.517Z,1024.10
2018-09-16T04:01:13.735Z,1024.09
2018-09-16T04:02:14.032Z,1024.14
2018-09-16T04:03:14.503Z,1024.15
2018-09-16T04:04:13.799Z,1024.13
2018-09-16T04:05:13.892Z,1024.10
2018-09-16T04:06:14.203Z,1024.08
2018-09-16T04:07:15.734Z,1024.09
2018-09-16T04:08:13.645Z,1024.12
2018-09-16T04:09:13.943Z,1024.07
2018-09-16T04:10:14.052Z,1024.06
2018-09-16T04:11:35.002Z,1024.07
2018-09-16T04:12:35.175Z,1024.06
2018-09-16T04:13:35.206Z,1024.08
2018-09-16T04:14:35.471Z,1024.11
2018-09-16T04:15:35.819Z,1024.08
2018-09-16T04:16:35.074Z,1024.08
2018-09-16T04:17:56.177Z,1024.11
2018-09-16T04:19:17.716Z,1024.12
2018-09-16T04:20:17.938Z,1024.12
2018-09-16T04:21:18.101Z,1024.13
2018-09-16T04:22:39.409Z,1024.09
2018-09-16T04:24:00.860Z,1024.13
2018-09-16T04:25:21.853Z,1024.13
2018-09-16T04:26:22.069Z,1024.12
2018-09-16T04:27:43.763Z,1024.10
2018-09-16T04:28:43.951Z,1024.11
2018-09-16T04:29:44.063Z,1024.11
2018-09-16T04:30:44.357Z,1024.11
2018-09-16T04:31:44.304Z,1024.14
2018-09-16T04:32:44.588Z,1024.14
2018-09-16T04:33:43.607Z,1024.15
2018-09-16T04:34:43.801Z,1024.17
2018-09-16T04:35:44.137Z,1024.19
2018-09-16T04:36:44.299Z,1024.22
2018-09-16T04:37:44.535Z,1024.18
2018-09-16T04:38:43.879Z,1024.20
2018-09-16T04:40:04.669Z,1024.25
2018-09-16T04:41:05.104Z,1024.26
2018-09-16T04:42:05.187Z,1024.27
2018-09-16T04:43:05.597Z,1024.32
2018-09-16T04:44:05.097Z,1024.30
2018-09-16T04:45:05.454Z,1024.26
2018-09-16T04:46:05.704Z,1024.28
2018-09-16T04:47:04.887Z,1024.29
2018-09-16T04:48:05.121Z,1024.27
2018-09-16T04:49:05.315Z,1024.26
2018-09-16T04:50:05.432Z,1024.28
2018-09-16T04:51:46.564Z,1024.28
2018-09-16T04:52:46.726Z,1024.30
2018-09-16T04:54:08.065Z,1024.30
2018-09-16T04:55:08.349Z,1024.29
2018-09-16T04:56:08.621Z,1024.29
2018-09-16T04:57:08.755Z,1024.23
2018-09-16T04:58:09.002Z,1024.26
2018-09-16T04:59:08.127Z,1024.24
2018-09-16T05:00:08.477Z,1024.25
2018-09-16T05:01:08.855Z,1024.24
2018-09-16T05:02:28.935Z,1024.25
2018-09-16T05:03:28.984Z,1024.29
2018-09-16T05:04:29.218Z,1024.26
2018-09-16T05:05:29.359Z,1024.27
2018-09-16T05:06:29.478Z,1024.28
2018-09-16T05:07:29.738Z,1024.29
2018-09-16T05:08:49.777Z,1024.30
2018-09-16T05:09:50.058Z,1024.28
2018-09-16T05:10:50.266Z,1024.28
2018-09-16T05:11:50.493Z,1024.32
2018-09-16T05:12:50.781Z,1024.32
2018-09-16T05:13:50.099Z,1024.37
2018-09-16T05:14:50.514Z,1024.32
2018-09-16T05:15:50.687Z,1024.35
2018-09-16T05:16:49.968Z,1024.32
2018-09-16T05:17:50.247Z,1024.34
2018-09-16T05:18:50.411Z,1024.31
2018-09-16T05:19:50.702Z,1024.33
2018-09-16T05:21:10.751Z,1024.31
2018-09-16T05:22:10.703Z,1024.33
2018-09-16T05:23:10.692Z,1024.35
2018-09-16T05:24:10.894Z,1024.31
2018-09-16T05:25:32.195Z,1024.34
2018-09-16T05:26:32.318Z,1024.33
2018-09-16T05:27:32.588Z,1024.32
2018-09-16T05:28:32.805Z,1024.31
2018-09-16T05:29:54.001Z,1024.36
2018-09-16T05:30:54.151Z,1024.37
2018-09-16T05:31:54.526Z,1024.36
2018-09-16T05:32:54.903Z,1024.37
2018-09-16T05:33:54.131Z,1024.38
2018-09-16T05:34:54.237Z,1024.38
2018-09-16T05:35:54.725Z,1024.39
2018-09-16T05:36:54.315Z,1024.37
2018-09-16T05:37:54.440Z,1024.39
2018-09-16T05:38:54.902Z,1024.34
2018-09-16T05:39:54.063Z,1024.34
2018-09-16T05:40:54.130Z,1024.33
2018-09-16T05:41:54.637Z,1024.31
2018-09-16T05:43:15.878Z,1024.34
2018-09-16T05:44:15.894Z,1024.36
2018-09-16T05:45:16.369Z,1024.39
2018-09-16T05:46:37.628Z,1024.41
2018-09-16T05:47:37.687Z,1024.35
2018-09-16T05:48:37.932Z,1024.36
2018-09-16T05:49:38.296Z,1024.34
2018-09-16T05:50:37.540Z,1024.36
2018-09-16T05:51:37.554Z,1024.38
2018-09-16T05:52:37.999Z,1024.40
2018-09-16T05:53:58.970Z,1024.40
2018-09-16T05:54:59.235Z,1024.38
2018-09-16T05:55:59.337Z,1024.40
2018-09-16T05:56:59.413Z,1024.44
2018-09-16T05:57:59.930Z,1024.39
2018-09-16T05:58:59.101Z,1024.44
2018-09-16T05:59:59.424Z,1024.41
2018-09-16T06:00:59.728Z,1024.40
2018-09-16T06:01:59.917Z,1024.40
2018-09-16T06:02:59.268Z,1024.43
2018-09-16T06:03:59.814Z,1024.43
2018-09-16T06:05:00.140Z,1024.44
2018-09-16T06:05:59.428Z,1024.46
2018-09-16T06:06:59.626Z,1024.42
2018-09-16T06:07:59.902Z,1024.44
2018-09-16T06:08:59.198Z,1024.43
2018-09-16T06:09:59.186Z,1024.44
2018-09-16T06:10:59.416Z,1024.42
2018-09-16T06:11:59.638Z,1024.43
2018-09-16T06:13:00.015Z,1024.44
2018-09-16T06:13:59.518Z,1024.41
2018-09-16T06:14:59.880Z,1024.45
2018-09-16T06:15:59.124Z,1024.40
2018-09-16T06:16:59.268Z,1024.37
2018-09-16T06:17:59.412Z,1024.37
2018-09-16T06:18:59.743Z,1024.36
2018-09-16T06:19:59.875Z,1024.33
2018-09-16T06:20:59.238Z,1024.30
2018-09-16T06:21:59.556Z,1024.34
2018-09-16T06:22:59.605Z,1024.32
2018-09-16T06:24:20.449Z,1024.18
2018-09-16T06:25:20.776Z,1024.38
2018-09-16T06:26:21.028Z,1024.39
2018-09-16T06:27:21.308Z,1024.39
2018-09-16T06:28:20.742Z,1024.39
2018-09-16T06:29:41.990Z,1024.39
2018-09-16T06:30:42.198Z,1024.43
2018-09-16T06:31:42.536Z,1024.35
2018-09-16T06:32:41.947Z,1024.32
2018-09-16T06:33:42.424Z,1024.34
2018-09-16T06:34:42.835Z,1024.35
2018-09-16T06:35:42.240Z,1024.31
2018-09-16T06:36:42.637Z,1024.27
2018-09-16T06:37:41.959Z,1024.32
2018-09-16T06:38:42.366Z,1024.26
2018-09-16T06:39:42.676Z,1024.24
2018-09-16T06:40:42.201Z,1024.21
2018-09-16T06:41:42.660Z,1024.23
2018-09-16T06:42:42.163Z,1024.23
2018-09-16T06:43:42.363Z,1024.23
2018-09-16T06:44:42.705Z,1024.20
2018-09-16T06:45:42.357Z,1024.22
2018-09-16T06:46:42.484Z,1024.19
2018-09-16T06:47:42.709Z,1024.14
2018-09-16T06:49:03.341Z,1024.13
2018-09-16T06:50:03.723Z,1024.11
2018-09-16T06:51:03.361Z,1024.14
2018-09-16T06:52:03.837Z,1024.14
2018-09-16T06:53:04.073Z,1024.12
2018-09-16T06:54:24.632Z,1024.09
2018-09-16T06:55:46.274Z,1024.06
2018-09-16T06:56:47.902Z,1024.02
2018-09-16T06:57:47.208Z,1024.04
2018-09-16T06:58:46.789Z,1023.99
2018-09-16T06:59:47.156Z,1024.05
2018-09-16T07:00:46.946Z,1024.04
2018-09-16T07:01:47.468Z,1024.02
2018-09-16T07:02:47.033Z,1023.99
2018-09-16T07:03:46.610Z,1023.96
2018-09-16T07:04:47.169Z,1023.97
2018-09-16T07:05:46.483Z,1023.98
2018-09-16T07:06:47.198Z,1023.97
2018-09-16T07:07:46.849Z,1024.01
2018-09-16T07:08:47.202Z,1024.02
2018-09-16T07:09:46.473Z,1023.98
2018-09-16T07:10:46.784Z,1023.98
2018-09-16T07:11:47.334Z,1023.93
2018-09-16T07:12:46.803Z,1023.97
2018-09-16T07:13:47.315Z,1023.94
2018-09-16T07:14:47.917Z,1023.99
2018-09-16T07:15:47.450Z,1023.99
2018-09-16T07:16:47.133Z,1023.93
2018-09-16T07:17:46.949Z,1023.96
2018-09-16T07:19:08.086Z,1023.96
2018-09-16T07:20:09.154Z,1023.97
2018-09-16T07:21:10.159Z,1023.96
2018-09-16T07:22:08.664Z,1023.95
2018-09-16T07:23:08.189Z,1023.91
2018-09-16T07:24:08.714Z,1023.95
2018-09-16T07:25:07.868Z,1023.95
2018-09-16T07:26:08.651Z,1023.91
2018-09-16T07:27:08.282Z,1023.93
2018-09-16T07:28:07.745Z,1023.88
2018-09-16T07:29:08.365Z,1023.78
2018-09-16T07:30:08.010Z,1023.80
2018-09-16T07:31:08.390Z,1023.78
2018-09-16T07:32:07.968Z,1023.80
2018-09-16T07:33:08.942Z,1023.73
2018-09-16T07:34:08.313Z,1023.77
2018-09-16T07:35:29.662Z,1023.75
2018-09-16T07:36:29.418Z,1023.73
2018-09-16T07:37:30.190Z,1023.73
2018-09-16T07:38:29.729Z,1023.75
2018-09-16T07:39:51.165Z,1023.75
2018-09-16T07:40:51.350Z,1023.74
2018-09-16T07:41:51.751Z,1023.74
2018-09-16T07:43:12.422Z,1023.77
2018-09-16T07:44:55.226Z,1023.75
2018-09-16T07:45:55.650Z,1023.75
2018-09-16T07:46:56.142Z,1023.76
2018-09-16T07:47:55.636Z,1023.79
2018-09-16T07:49:17.316Z,1023.76
2018-09-16T07:50:18.091Z,1023.74
2018-09-16T07:51:17.421Z,1023.73
2018-09-16T07:52:18.092Z,1023.76
2018-09-16T07:53:17.642Z,1023.79
2018-09-16T07:54:18.643Z,1023.74
2018-09-16T07:55:40.361Z,1023.78
2018-09-16T07:56:39.817Z,1023.78
2018-09-16T07:57:39.428Z,1023.77
2018-09-16T07:58:40.135Z,1023.80
2018-09-16T07:59:39.482Z,1023.81
2018-09-16T08:00:39.993Z,1023.81
2018-09-16T08:01:39.740Z,1023.80
2018-09-16T08:02:39.608Z,1023.76
2018-09-16T08:03:41.112Z,1023.76
2018-09-16T08:05:01.543Z,1023.75
2018-09-16T08:06:02.213Z,1023.72
2018-09-16T08:07:01.747Z,1023.72
2018-09-16T08:08:03.135Z,1023.75
2018-09-16T08:09:01.374Z,1023.75
2018-09-16T08:10:01.917Z,1023.74
2018-09-16T08:11:03.289Z,1023.77
2018-09-16T08:12:01.781Z,1023.77
2018-09-16T08:13:02.489Z,1023.79
2018-09-16T08:14:01.847Z,1023.77
2018-09-16T08:15:02.353Z,1023.75
2018-09-16T08:16:01.833Z,1023.75
2018-09-16T08:17:02.219Z,1023.75
2018-09-16T08:18:01.996Z,1023.73
2018-09-16T08:19:01.579Z,1023.75
2018-09-16T08:20:02.112Z,1023.75
2018-09-16T08:21:44.081Z,1023.72
2018-09-16T08:22:45.263Z,1023.76
2018-09-16T08:23:45.051Z,1023.77
2018-09-16T08:24:44.436Z,1023.78
2018-09-16T08:25:44.093Z,1023.80
2018-09-16T08:26:44.875Z,1023.82
2018-09-16T08:27:45.120Z,1023.81
2018-09-16T08:28:45.037Z,1023.85
2018-09-16T08:29:44.548Z,1023.86
2018-09-16T08:30:45.091Z,1023.88
2018-09-16T08:31:44.779Z,1023.86
2018-09-16T08:32:44.472Z,1023.84
2018-09-16T08:33:45.118Z,1023.85
2018-09-16T08:34:44.843Z,1023.85
2018-09-16T08:35:44.278Z,1023.85
2018-09-16T08:36:44.981Z,1023.84
2018-09-16T08:37:44.438Z,1023.89
2018-09-16T08:38:44.809Z,1023.89
2018-09-16T08:40:28.608Z,1023.89
2018-09-16T08:41:28.731Z,1023.89
2018-09-16T08:42:27.509Z,1023.92
2018-09-16T08:43:27.789Z,1023.90
2018-09-16T08:44:27.217Z,1023.91
2018-09-16T08:45:27.882Z,1023.88
2018-09-16T08:46:27.749Z,1023.96
2018-09-16T08:47:48.529Z,1023.91
2018-09-16T08:48:49.359Z,1023.90
2018-09-16T08:49:48.942Z,1023.89
2018-09-16T08:51:10.030Z,1023.94
2018-09-16T08:52:10.762Z,1023.93
2018-09-16T08:53:10.390Z,1023.93
2018-09-16T08:54:30.965Z,1023.92
2018-09-16T08:55:31.712Z,1023.88
2018-09-16T08:56:31.960Z,1023.83
2018-09-16T08:57:31.233Z,1023.81
2018-09-16T08:58:31.582Z,1023.82
2018-09-16T08:59:31.167Z,1023.82
2018-09-16T09:00:31.567Z,1023.82
2018-09-16T09:01:31.672Z,1023.79
2018-09-16T09:02:31.722Z,1023.75
2018-09-16T09:03:51.935Z,1023.70
2018-09-16T09:04:53.042Z,1023.71
2018-09-16T09:05:52.382Z,1023.71
2018-09-16T09:07:35.468Z,1023.66
2018-09-16T09:08:36.511Z,1023.61
2018-09-16T09:09:59.003Z,1023.61
2018-09-16T09:10:59.378Z,1023.64
2018-09-16T09:12:00.320Z,1023.61
2018-09-16T09:12:59.895Z,1023.64
2018-09-16T09:13:59.416Z,1023.60
2018-09-16T09:15:00.123Z,1023.62
2018-09-16T09:15:59.494Z,1023.57
2018-09-16T09:16:59.673Z,1023.54
2018-09-16T09:17:59.092Z,1023.52
2018-09-16T09:18:59.344Z,1023.50
2018-09-16T09:19:59.687Z,1023.45
2018-09-16T09:20:59.141Z,1023.42
2018-09-16T09:21:59.557Z,1023.46
2018-09-16T09:23:20.560Z,1023.38
2018-09-16T09:24:20.906Z,1023.43
2018-09-16T09:25:21.005Z,1023.50
2018-09-16T09:26:20.310Z,1023.45
2018-09-16T09:27:20.539Z,1023.47
2018-09-16T09:28:19.984Z,1023.48
2018-09-16T09:29:20.739Z,1023.42
2018-09-16T09:30:20.313Z,1023.47
2018-09-16T09:31:41.802Z,1023.44
2018-09-16T09:32:42.019Z,1023.43
2018-09-16T09:33:42.146Z,1023.40
2018-09-16T09:34:42.799Z,1023.40
2018-09-16T09:36:04.192Z,1023.36
2018-09-16T09:37:04.413Z,1023.31
2018-09-16T09:38:04.872Z,1023.27
2018-09-16T09:39:03.966Z,1023.28
2018-09-16T09:40:28.624Z,1023.27
2018-09-16T09:41:28.673Z,1023.26
2018-09-16T09:42:28.007Z,1023.23
2018-09-16T09:43:27.361Z,1023.23
2018-09-16T09:44:27.952Z,1023.19
2018-09-16T09:45:27.351Z,1023.24
2018-09-16T09:46:27.543Z,1023.24
2018-09-16T09:47:27.877Z,1023.18
2018-09-16T09:48:29.285Z,1023.22
2018-09-16T09:49:48.859Z,1023.19
2018-09-16T09:51:32.988Z,1023.19
2018-09-16T09:52:32.470Z,1023.20
2018-09-16T09:53:33.451Z,1023.18
2018-09-16T09:54:32.800Z,1023.14
2018-09-16T09:55:33.243Z,1023.21
2018-09-16T09:56:32.326Z,1023.15
2018-09-16T09:57:32.815Z,1023.24
2018-09-16T09:58:33.094Z,1023.18
2018-09-16T09:59:32.497Z,1023.17
2018-09-16T10:00:32.675Z,1023.24
2018-09-16T10:01:33.064Z,1023.25
2018-09-16T10:02:32.260Z,1023.28
2018-09-16T10:03:33.837Z,1023.26
2018-09-16T10:04:33.175Z,1023.28
2018-09-16T10:05:54.098Z,1023.25
2018-09-16T10:06:54.557Z,1023.27
2018-09-16T10:07:55.687Z,1023.28
2018-09-16T10:08:54.172Z,1023.28
2018-09-16T10:09:54.623Z,1023.29
2018-09-16T10:11:39.512Z,1023.29
2018-09-16T10:12:39.810Z,1023.28
2018-09-16T10:13:40.099Z,1023.31
2018-09-16T10:15:00.393Z,1023.39
2018-09-16T10:16:00.689Z,1023.35
2018-09-16T10:17:01.184Z,1023.30
2018-09-16T10:18:00.589Z,1023.37
2018-09-16T10:19:01.524Z,1023.29
2018-09-16T10:20:00.995Z,1023.27
2018-09-16T10:21:00.574Z,1023.25
2018-09-16T10:22:00.848Z,1023.25
2018-09-16T10:23:01.482Z,1023.20
2018-09-16T10:24:01.114Z,1023.28
2018-09-16T10:25:00.613Z,1023.30
2018-09-16T10:26:00.668Z,1023.29
2018-09-16T10:27:00.892Z,1023.25
2018-09-16T10:28:01.279Z,1023.23
2018-09-16T10:29:00.698Z,1023.20
2018-09-16T10:30:01.155Z,1023.24
2018-09-16T10:31:01.680Z,1023.18
2018-09-16T10:32:01.619Z,1023.16
2018-09-16T10:33:01.552Z,1023.15
2018-09-16T10:34:02.093Z,1023.11
2018-09-16T10:35:00.391Z,1023.14
2018-09-16T10:36:00.843Z,1023.12
2018-09-16T10:37:01.294Z,1023.09
2018-09-16T10:38:00.692Z,1023.08
2018-09-16T10:39:02.314Z,1023.04
2018-09-16T10:40:00.764Z,1023.00
2018-09-16T10:41:44.367Z,1022.99
2018-09-16T10:42:44.755Z,1023.02
2018-09-16T10:43:45.585Z,1023.04
2018-09-16T10:44:45.405Z,1023.02
2018-09-16T10:45:44.673Z,1023.03
2018-09-16T10:46:46.079Z,1023.02
2018-09-16T10:47:44.547Z,1023.02
2018-09-16T10:48:44.967Z,1022.96
2018-09-16T10:49:44.378Z,1023.00
2018-09-16T10:50:44.857Z,1022.99
2018-09-16T10:51:44.997Z,1022.92
2018-09-16T10:52:44.345Z,1022.94
2018-09-16T10:53:44.595Z,1022.97
2018-09-16T10:54:44.945Z,1022.95
2018-09-16T10:55:45.544Z,1022.93
2018-09-16T10:56:45.530Z,1022.94
2018-09-16T10:57:44.617Z,1022.92
2018-09-16T10:58:45.148Z,1022.90
2018-09-16T10:59:44.260Z,1022.95
2018-09-16T11:00:44.712Z,1022.89
2018-09-16T11:01:45.783Z,1022.91
2018-09-16T11:02:44.491Z,1022.87
2018-09-16T11:03:45.597Z,1022.84
2018-09-16T11:05:06.232Z,1022.81
2018-09-16T11:06:07.148Z,1022.83
2018-09-16T11:07:06.353Z,1022.76
2018-09-16T11:08:06.630Z,1022.84
2018-09-16T11:09:07.023Z,1022.78
2018-09-16T11:10:06.470Z,1022.80
2018-09-16T11:11:06.985Z,1022.82
2018-09-16T11:12:07.425Z,1022.86
2018-09-16T11:13:28.208Z,1022.90
2018-09-16T11:14:49.597Z,1022.83
2018-09-16T11:15:49.966Z,1022.78
2018-09-16T11:16:50.441Z,1022.83
2018-09-16T11:18:11.405Z,1022.80
2018-09-16T11:19:12.735Z,1022.74
2018-09-16T11:20:12.363Z,1022.72
2018-09-16T11:21:11.841Z,1022.71
2018-09-16T11:22:12.321Z,1022.70
2018-09-16T11:23:12.825Z,1022.70
2018-09-16T11:24:12.184Z,1022.71
2018-09-16T11:25:33.458Z,1022.78
2018-09-16T11:26:34.799Z,1022.78
2018-09-16T11:27:34.225Z,1022.70
2018-09-16T11:28:33.511Z,1022.72
2018-09-16T11:30:16.461Z,1022.68
2018-09-16T11:31:16.860Z,1022.65
2018-09-16T11:32:18.238Z,1022.63
2018-09-16T11:33:38.375Z,1022.59
2018-09-16T11:34:37.789Z,1022.57
2018-09-16T11:36:00.702Z,1022.57
2018-09-16T11:37:03.140Z,1022.54
2018-09-16T11:38:00.761Z,1022.56
2018-09-16T11:39:00.325Z,1022.49
2018-09-16T11:40:00.568Z,1022.50
2018-09-16T11:41:00.851Z,1022.53
2018-09-16T11:42:00.598Z,1022.51
2018-09-16T11:43:01.171Z,1022.53
2018-09-16T11:44:00.602Z,1022.53
2018-09-16T11:45:01.042Z,1022.48
2018-09-16T11:46:21.695Z,1022.49
2018-09-16T11:47:45.379Z,1022.44
2018-09-16T11:48:43.820Z,1022.42
2018-09-16T11:49:43.347Z,1022.36
2018-09-16T11:50:43.759Z,1022.41
2018-09-16T11:51:44.385Z,1022.35
2018-09-16T11:52:44.030Z,1022.44
2018-09-16T11:53:43.196Z,1022.33
2018-09-16T11:54:43.811Z,1022.38
2018-09-16T11:55:43.767Z,1022.43
2018-09-16T11:56:44.303Z,1022.46
2018-09-16T11:57:44.004Z,1022.41
2018-09-16T11:58:43.454Z,1022.45
2018-09-16T11:59:43.864Z,1022.41
2018-09-16T12:01:04.752Z,1022.47
2018-09-16T12:02:05.231Z,1022.41
2018-09-16T12:03:05.316Z,1022.40
2018-09-16T12:04:05.649Z,1022.33
2018-09-16T12:05:05.068Z,1022.32
2018-09-16T12:06:05.354Z,1022.27
2018-09-16T12:07:05.066Z,1022.24
2018-09-16T12:08:05.401Z,1022.24
2018-09-16T12:09:04.687Z,1022.31
2018-09-16T12:10:05.138Z,1022.30
2018-09-16T12:11:06.672Z,1022.26
2018-09-16T12:12:06.326Z,1022.30
2018-09-16T12:13:05.777Z,1022.27
2018-09-16T12:14:05.347Z,1022.25
2018-09-16T12:15:25.749Z,1022.26
2018-09-16T12:16:28.003Z,1022.20
2018-09-16T12:17:26.591Z,1022.19
2018-09-16T12:18:26.446Z,1022.24
2018-09-16T12:19:26.816Z,1022.24
2018-09-16T12:20:26.328Z,1022.21
2018-09-16T12:21:47.812Z,1022.18
2018-09-16T12:22:48.366Z,1022.18
2018-09-16T12:23:47.669Z,1022.19
2018-09-16T12:24:47.923Z,1022.16
2018-09-16T12:25:48.356Z,1022.13
2018-09-16T12:27:08.960Z,1022.13
2018-09-16T12:28:30.922Z,1022.14
2018-09-16T12:29:31.508Z,1022.10
2018-09-16T12:30:30.997Z,1022.06
2018-09-16T12:31:31.390Z,1022.06
2018-09-16T12:32:31.627Z,1022.00
2018-09-16T12:33:31.286Z,1021.99
2018-09-16T12:34:31.785Z,1022.02
2018-09-16T12:35:31.411Z,1021.99
2018-09-16T12:36:30.704Z,1021.97
2018-09-16T12:38:34.774Z,1021.96
2018-09-16T12:39:35.106Z,1021.95
2018-09-16T12:40:35.458Z,1021.92
2018-09-16T12:41:35.438Z,1021.92
2018-09-16T12:42:35.120Z,1021.90
2018-09-16T12:43:36.337Z,1021.89
2018-09-16T12:44:35.810Z,1021.89
2018-09-16T12:45:35.253Z,1021.90
2018-09-16T12:46:57.276Z,1021.90